sensor_id;sensor_type;location;lat;lon;timestamp;pressure;altitude;pressure_sealevel;temperature;humidity
38400;BME280;24180;42.676;23.320;2022-08-19T00:01:31;94537.19;;;21.91;100.00
38400;BME280;24180;42.676;23.320;2022-08-19T00:03:59;94540.81;;;21.97;100.00
38400;BME280;24180;42.676;23.320;2022-08-19T00:06:27;94539.19;;;21.96;100.00
38400;BME280;24180;42.676;23.320;2022-08-19T00:08:52;94533.06;;;21.77;100.00
38400;BME280;24180;42.676;23.320;2022-08-19T00:11:18;94546.44;;;21.76;100.00
38400;BME280;24180;42.676;23.320;2022-08-19T00:13:44;94531.06;;;21.73;100.00
38400;BME280;24180;42.676;23.320;2022-08-19T00:16:11;94524.47;;;21.64;100.00
38400;BME280;24180;42.676;23.320;2022-08-19T00:18:37;94533.25;;;21.58;100.00
38400;BME280;24180;42.676;23.320;2022-08-19T00:21:02;94545.38;;;21.59;100.00
38400;BME280;24180;42.676;23.320;2022-08-19T00:23:32;94552.69;;;21.57;100.00
38400;BME280;24180;42.676;23.320;2022-08-19T00:26:00;94557.53;;;21.60;100.00
38400;BME280;24180;42.676;23.320;2022-08-19T00:28:25;94542.47;;;21.67;100.00
38400;BME280;24180;42.676;23.320;2022-08-19T00:30:51;94553.00;;;21.67;100.00
38400;BME280;24180;42.676;23.320;2022-08-19T00:33:19;94547.88;;;21.54;100.00
38400;BME280;24180;42.676;23.320;2022-08-19T00:35:44;94527.38;;;21.56;100.00
38400;BME280;24180;42.676;23.320;2022-08-19T00:38:10;94538.81;;;21.68;100.00
38400;BME280;24180;42.676;23.320;2022-08-19T00:40:36;94537.63;;;21.64;100.00
38400;BME280;24180;42.676;23.320;2022-08-19T00:43:08;94536.91;;;21.57;100.00
38400;BME280;24180;42.676;23.320;2022-08-19T00:45:34;94541.09;;;21.39;100.00
38400;BME280;24180;42.676;23.320;2022-08-19T00:48:01;94537.88;;;21.37;100.00
38400;BME280;24180;42.676;23.320;2022-08-19T00:50:29;94528.94;;;21.38;100.00
38400;BME280;24180;42.676;23.320;2022-08-19T00:52:57;94533.44;;;21.31;100.00
38400;BME280;24180;42.676;23.320;2022-08-19T00:55:26;94527.97;;;21.33;100.00
38400;BME280;24180;42.676;23.320;2022-08-19T00:58:09;94543.72;;;21.39;100.00
38400;BME280;24180;42.676;23.320;2022-08-19T01:00:37;94532.69;;;21.24;100.00
38400;BME280;24180;42.676;23.320;2022-08-19T01:03:06;94537.59;;;21.21;100.00
38400;BME280;24180;42.676;23.320;2022-08-19T01:05:32;94543.66;;;21.21;100.00
38400;BME280;24180;42.676;23.320;2022-08-19T01:08:00;94548.97;;;21.15;100.00
38400;BME280;24180;42.676;23.320;2022-08-19T01:10:29;94534.41;;;21.12;100.00
38400;BME280;24180;42.676;23.320;2022-08-19T01:12:58;94538.84;;;21.12;100.00
38400;BME280;24180;42.676;23.320;2022-08-19T01:15:32;94540.88;;;21.10;100.00
38400;BME280;24180;42.676;23.320;2022-08-19T01:18:01;94537.91;;;20.99;100.00
38400;BME280;24180;42.676;23.320;2022-08-19T01:20:27;94543.78;;;21.01;100.00
38400;BME280;24180;42.676;23.320;2022-08-19T01:22:57;94521.59;;;20.84;100.00
38400;BME280;24180;42.676;23.320;2022-08-19T01:25:51;94532.06;;;20.91;100.00
38400;BME280;24180;42.676;23.320;2022-08-19T01:28:27;94529.69;;;20.83;100.00
38400;BME280;24180;42.676;23.320;2022-08-19T01:30:53;94535.63;;;20.72;100.00
38400;BME280;24180;42.676;23.320;2022-08-19T01:33:20;94536.06;;;20.69;100.00
38400;BME280;24180;42.676;23.320;2022-08-19T01:35:46;94544.34;;;20.72;100.00
38400;BME280;24180;42.676;23.320;2022-08-19T01:38:25;94536.88;;;20.69;100.00
38400;BME280;24180;42.676;23.320;2022-08-19T01:40:51;94536.69;;;20.64;100.00
38400;BME280;24180;42.676;23.320;2022-08-19T01:43:17;94521.31;;;20.61;100.00
38400;BME280;24180;42.676;23.320;2022-08-19T01:45:45;94535.88;;;20.64;100.00
38400;BME280;24180;42.676;23.320;2022-08-19T01:48:12;94522.19;;;20.48;100.00
38400;BME280;24180;42.676;23.320;2022-08-19T01:50:37;94536.13;;;20.55;100.00
38400;BME280;24180;42.676;23.320;2022-08-19T01:53:06;94536.53;;;20.52;100.00
38400;BME280;24180;42.676;23.320;2022-08-19T01:55:36;94547.66;;;20.54;100.00
38400;BME280;24180;42.676;23.320;2022-08-19T01:58:04;94534.34;;;20.49;100.00
38400;BME280;24180;42.676;23.320;2022-08-19T02:00:31;94537.38;;;20.46;100.00
38400;BME280;24180;42.676;23.320;2022-08-19T02:02:57;94531.97;;;20.35;100.00
38400;BME280;24180;42.676;23.320;2022-08-19T02:05:23;94526.94;;;20.33;100.00
38400;BME280;24180;42.676;23.320;2022-08-19T02:07:49;94541.28;;;20.37;100.00
38400;BME280;24180;42.676;23.320;2022-08-19T02:10:21;94537.59;;;20.38;100.00
38400;BME280;24180;42.676;23.320;2022-08-19T02:12:47;94540.22;;;20.38;100.00
38400;BME280;24180;42.676;23.320;2022-08-19T02:15:14;94539.00;;;20.47;100.00
38400;BME280;24180;42.676;23.320;2022-08-19T02:17:41;94542.09;;;20.38;100.00
38400;BME280;24180;42.676;23.320;2022-08-19T02:20:08;94537.63;;;20.25;100.00
38400;BME280;24180;42.676;23.320;2022-08-19T02:22:34;94533.63;;;20.29;100.00
38400;BME280;24180;42.676;23.320;2022-08-19T02:25:00;94537.25;;;20.22;100.00
38400;BME280;24180;42.676;23.320;2022-08-19T02:27:26;94542.69;;;20.33;100.00
38400;BME280;24180;42.676;23.320;2022-08-19T02:29:52;94542.91;;;20.25;100.00
38400;BME280;24180;42.676;23.320;2022-08-19T02:32:18;94530.19;;;20.16;100.00
38400;BME280;24180;42.676;23.320;2022-08-19T02:34:47;94538.25;;;20.21;100.00
38400;BME280;24180;42.676;23.320;2022-08-19T02:37:14;94538.50;;;19.99;100.00
38400;BME280;24180;42.676;23.320;2022-08-19T02:39:58;94535.09;;;19.92;100.00
38400;BME280;24180;42.676;23.320;2022-08-19T02:42:24;94541.38;;;19.98;100.00
38400;BME280;24180;42.676;23.320;2022-08-19T02:44:50;94533.28;;;19.93;100.00
38400;BME280;24180;42.676;23.320;2022-08-19T02:47:17;94543.34;;;20.02;100.00
38400;BME280;24180;42.676;23.320;2022-08-19T02:49:44;94535.09;;;19.92;100.00
38400;BME280;24180;42.676;23.320;2022-08-19T02:52:10;94536.72;;;19.87;100.00
38400;BME280;24180;42.676;23.320;2022-08-19T02:54:37;94541.16;;;19.93;100.00
38400;BME280;24180;42.676;23.320;2022-08-19T02:57:03;94550.47;;;19.89;100.00
38400;BME280;24180;42.676;23.320;2022-08-19T02:59:32;94548.63;;;19.96;100.00
38400;BME280;24180;42.676;23.320;2022-08-19T03:01:57;94548.66;;;19.89;100.00
38400;BME280;24180;42.676;23.320;2022-08-19T03:04:23;94546.06;;;19.70;100.00
38400;BME280;24180;42.676;23.320;2022-08-19T03:06:51;94552.91;;;19.71;100.00
38400;BME280;24180;42.676;23.320;2022-08-19T03:09:17;94548.69;;;19.63;100.00
38400;BME280;24180;42.676;23.320;2022-08-19T03:11:46;94530.72;;;19.53;100.00
38400;BME280;24180;42.676;23.320;2022-08-19T03:14:12;94549.91;;;19.60;100.00
38400;BME280;24180;42.676;23.320;2022-08-19T03:17:00;94554.16;;;19.48;100.00
38400;BME280;24180;42.676;23.320;2022-08-19T03:19:47;94545.88;;;19.51;100.00
38400;BME280;24180;42.676;23.320;2022-08-19T03:22:15;94543.19;;;19.38;100.00
38400;BME280;24180;42.676;23.320;2022-08-19T03:27:50;94528.88;;;19.28;100.00
38400;BME280;24180;42.676;23.320;2022-08-19T03:30:39;94542.41;;;19.31;100.00
38400;BME280;24180;42.676;23.320;2022-08-19T03:33:12;94523.00;;;19.19;100.00
38400;BME280;24180;42.676;23.320;2022-08-19T03:35:43;94532.91;;;19.30;100.00
38400;BME280;24180;42.676;23.320;2022-08-19T03:41:40;94548.88;;;19.35;100.00
38400;BME280;24180;42.676;23.320;2022-08-19T03:44:17;94543.22;;;19.25;100.00
38400;BME280;24180;42.676;23.320;2022-08-19T03:46:56;94552.69;;;19.26;100.00
38400;BME280;24180;42.676;23.320;2022-08-19T03:49:30;94549.06;;;19.21;100.00
38400;BME280;24180;42.676;23.320;2022-08-19T03:52:18;94565.03;;;19.32;100.00
38400;BME280;24180;42.676;23.320;2022-08-19T03:55:07;94576.97;;;19.48;100.00
38400;BME280;24180;42.676;23.320;2022-08-19T04:01:19;94572.31;;;19.43;100.00
38400;BME280;24180;42.676;23.320;2022-08-19T04:04:08;94572.50;;;19.42;100.00
38400;BME280;24180;42.676;23.320;2022-08-19T04:06:56;94575.38;;;19.53;100.00
38400;BME280;24180;42.676;23.320;2022-08-19T04:09:42;94577.78;;;19.68;100.00
38400;BME280;24180;42.676;23.320;2022-08-19T04:12:41;94584.84;;;19.68;100.00
38400;BME280;24180;42.676;23.320;2022-08-19T04:15:19;94562.63;;;19.50;100.00
38400;BME280;24180;42.676;23.320;2022-08-19T04:17:51;94560.00;;;19.50;100.00
38400;BME280;24180;42.676;23.320;2022-08-19T04:20:17;94583.03;;;19.75;100.00
38400;BME280;24180;42.676;23.320;2022-08-19T04:22:42;94572.13;;;19.78;100.00
38400;BME280;24180;42.676;23.320;2022-08-19T04:25:08;94580.59;;;19.86;100.00
38400;BME280;24180;42.676;23.320;2022-08-19T04:27:34;94576.72;;;19.95;100.00
38400;BME280;24180;42.676;23.320;2022-08-19T04:29:59;94588.66;;;20.04;100.00
38400;BME280;24180;42.676;23.320;2022-08-19T04:32:25;94586.63;;;20.13;100.00
38400;BME280;24180;42.676;23.320;2022-08-19T04:34:51;94584.16;;;20.18;100.00
38400;BME280;24180;42.676;23.320;2022-08-19T04:37:20;94568.81;;;20.22;100.00
38400;BME280;24180;42.676;23.320;2022-08-19T04:39:45;94589.38;;;20.44;100.00
38400;BME280;24180;42.676;23.320;2022-08-19T04:42:29;94584.47;;;20.54;100.00
38400;BME280;24180;42.676;23.320;2022-08-19T04:45:06;94584.44;;;20.68;100.00
38400;BME280;24180;42.676;23.320;2022-08-19T04:47:32;94576.66;;;20.86;100.00
38400;BME280;24180;42.676;23.320;2022-08-19T04:49:59;94581.84;;;20.99;100.00
38400;BME280;24180;42.676;23.320;2022-08-19T04:52:25;94570.50;;;20.98;100.00
38400;BME280;24180;42.676;23.320;2022-08-19T04:54:50;94583.81;;;21.10;100.00
38400;BME280;24180;42.676;23.320;2022-08-19T04:57:16;94590.31;;;21.14;100.00
38400;BME280;24180;42.676;23.320;2022-08-19T04:59:41;94583.75;;;21.23;100.00
38400;BME280;24180;42.676;23.320;2022-08-19T05:02:09;94593.66;;;21.28;100.00
38400;BME280;24180;42.676;23.320;2022-08-19T05:04:35;94581.91;;;21.30;100.00
38400;BME280;24180;42.676;23.320;2022-08-19T05:07:06;94591.69;;;21.48;100.00
38400;BME280;24180;42.676;23.320;2022-08-19T05:09:31;94584.84;;;21.40;100.00
38400;BME280;24180;42.676;23.320;2022-08-19T05:11:57;94601.66;;;21.39;100.00
38400;BME280;24180;42.676;23.320;2022-08-19T05:14:22;94585.72;;;21.34;100.00
38400;BME280;24180;42.676;23.320;2022-08-19T05:16:48;94599.03;;;21.39;100.00
38400;BME280;24180;42.676;23.320;2022-08-19T05:19:14;94581.59;;;21.38;100.00
38400;BME280;24180;42.676;23.320;2022-08-19T05:21:59;94589.25;;;21.46;100.00
38400;BME280;24180;42.676;23.320;2022-08-19T05:24:44;94588.41;;;21.53;100.00
38400;BME280;24180;42.676;23.320;2022-08-19T05:27:10;94588.31;;;21.66;100.00
38400;BME280;24180;42.676;23.320;2022-08-19T05:29:36;94593.16;;;21.69;100.00
38400;BME280;24180;42.676;23.320;2022-08-19T05:32:06;94591.50;;;21.74;100.00
38400;BME280;24180;42.676;23.320;2022-08-19T05:34:37;94601.53;;;21.84;100.00
38400;BME280;24180;42.676;23.320;2022-08-19T05:37:04;94595.00;;;21.93;100.00
38400;BME280;24180;42.676;23.320;2022-08-19T05:39:33;94599.38;;;21.99;100.00
38400;BME280;24180;42.676;23.320;2022-08-19T05:42:02;94608.06;;;22.06;100.00
38400;BME280;24180;42.676;23.320;2022-08-19T05:44:31;94603.28;;;22.15;100.00
38400;BME280;24180;42.676;23.320;2022-08-19T05:46:57;94603.97;;;22.28;100.00
38400;BME280;24180;42.676;23.320;2022-08-19T05:49:23;94602.66;;;22.37;100.00
38400;BME280;24180;42.676;23.320;2022-08-19T05:51:50;94601.72;;;22.50;100.00
38400;BME280;24180;42.676;23.320;2022-08-19T05:54:17;94586.59;;;22.57;100.00
38400;BME280;24180;42.676;23.320;2022-08-19T05:56:43;94586.84;;;22.74;100.00
38400;BME280;24180;42.676;23.320;2022-08-19T05:59:09;94600.16;;;22.79;100.00
38400;BME280;24180;42.676;23.320;2022-08-19T06:01:38;94588.03;;;22.78;100.00
38400;BME280;24180;42.676;23.320;2022-08-19T06:04:04;94597.69;;;22.84;100.00
38400;BME280;24180;42.676;23.320;2022-08-19T06:06:32;94592.44;;;22.96;100.00
38400;BME280;24180;42.676;23.320;2022-08-19T06:09:11;94605.63;;;23.14;100.00
38400;BME280;24180;42.676;23.320;2022-08-19T06:11:45;94604.84;;;23.25;100.00
38400;BME280;24180;42.676;23.320;2022-08-19T06:14:15;94604.44;;;23.40;100.00
38400;BME280;24180;42.676;23.320;2022-08-19T06:16:41;94599.66;;;23.48;100.00
38400;BME280;24180;42.676;23.320;2022-08-19T06:22:29;94612.69;;;23.73;100.00
38400;BME280;24180;42.676;23.320;2022-08-19T06:24:57;94608.22;;;23.73;100.00
38400;BME280;24180;42.676;23.320;2022-08-19T06:27:42;94607.34;;;23.91;100.00
38400;BME280;24180;42.676;23.320;2022-08-19T06:30:10;94604.56;;;23.98;100.00
38400;BME280;24180;42.676;23.320;2022-08-19T06:32:37;94611.22;;;24.12;100.00
38400;BME280;24180;42.676;23.320;2022-08-19T06:35:04;94616.09;;;24.27;100.00
38400;BME280;24180;42.676;23.320;2022-08-19T06:37:30;94599.63;;;24.24;100.00
38400;BME280;24180;42.676;23.320;2022-08-19T06:39:56;94601.59;;;24.29;100.00
38400;BME280;24180;42.676;23.320;2022-08-19T06:42:22;94598.25;;;24.34;100.00
38400;BME280;24180;42.676;23.320;2022-08-19T06:44:48;94605.38;;;24.45;100.00
38400;BME280;24180;42.676;23.320;2022-08-19T06:47:17;94595.41;;;24.35;100.00
38400;BME280;24180;42.676;23.320;2022-08-19T06:49:43;94611.72;;;24.55;100.00
38400;BME280;24180;42.676;23.320;2022-08-19T06:52:14;94601.09;;;24.67;100.00
38400;BME280;24180;42.676;23.320;2022-08-19T06:54:42;94594.97;;;24.78;100.00
38400;BME280;24180;42.676;23.320;2022-08-19T06:57:08;94603.78;;;24.84;100.00
38400;BME280;24180;42.676;23.320;2022-08-19T06:59:38;94603.66;;;25.02;100.00
38400;BME280;24180;42.676;23.320;2022-08-19T07:02:07;94592.25;;;25.01;100.00
38400;BME280;24180;42.676;23.320;2022-08-19T07:04:35;94608.88;;;25.25;100.00
38400;BME280;24180;42.676;23.320;2022-08-19T07:07:11;94619.25;;;25.27;100.00
38400;BME280;24180;42.676;23.320;2022-08-19T07:09:56;94600.75;;;25.32;100.00
38400;BME280;24180;42.676;23.320;2022-08-19T07:12:22;94616.59;;;25.55;100.00
38400;BME280;24180;42.676;23.320;2022-08-19T07:14:59;94596.28;;;25.49;100.00
38400;BME280;24180;42.676;23.320;2022-08-19T07:17:25;94610.72;;;25.70;100.00
38400;BME280;24180;42.676;23.320;2022-08-19T07:19:52;94618.13;;;25.84;100.00
38400;BME280;24180;42.676;23.320;2022-08-19T07:22:18;94616.59;;;26.05;100.00
38400;BME280;24180;42.676;23.320;2022-08-19T07:24:46;94611.47;;;26.15;100.00
38400;BME280;24180;42.676;23.320;2022-08-19T07:27:13;94620.41;;;26.26;100.00
38400;BME280;24180;42.676;23.320;2022-08-19T07:29:42;94609.13;;;26.35;100.00
38400;BME280;24180;42.676;23.320;2022-08-19T07:32:10;94607.91;;;26.43;100.00
38400;BME280;24180;42.676;23.320;2022-08-19T07:34:36;94615.50;;;26.56;100.00
38400;BME280;24180;42.676;23.320;2022-08-19T07:37:06;94607.59;;;26.61;100.00
38400;BME280;24180;42.676;23.320;2022-08-19T07:39:36;94610.72;;;26.75;100.00
38400;BME280;24180;42.676;23.320;2022-08-19T07:42:13;94610.13;;;26.89;98.69
38400;BME280;24180;42.676;23.320;2022-08-19T07:44:40;94590.88;;;26.82;95.72
38400;BME280;24180;42.676;23.320;2022-08-19T07:47:12;94601.22;;;27.00;95.34
38400;BME280;24180;42.676;23.320;2022-08-19T07:49:39;94596.47;;;27.03;96.13
38400;BME280;24180;42.676;23.320;2022-08-19T07:52:07;94610.03;;;27.28;93.74
38400;BME280;24180;42.676;23.320;2022-08-19T07:54:39;94605.31;;;27.35;91.80
38400;BME280;24180;42.676;23.320;2022-08-19T07:57:08;94605.41;;;27.45;92.11
38400;BME280;24180;42.676;23.320;2022-08-19T07:59:34;94612.63;;;27.71;91.65
38400;BME280;24180;42.676;23.320;2022-08-19T08:02:00;94615.16;;;27.88;88.19
38400;BME280;24180;42.676;23.320;2022-08-19T08:04:28;94607.75;;;27.95;85.88
38400;BME280;24180;42.676;23.320;2022-08-19T08:07:13;94595.44;;;28.16;80.23
38400;BME280;24180;42.676;23.320;2022-08-19T08:09:58;94615.19;;;28.25;78.83
38400;BME280;24180;42.676;23.320;2022-08-19T08:12:29;94613.03;;;28.22;80.87
38400;BME280;24180;42.676;23.320;2022-08-19T08:14:59;94599.56;;;28.38;80.16
38400;BME280;24180;42.676;23.320;2022-08-19T08:17:27;94610.09;;;28.60;76.32
38400;BME280;24180;42.676;23.320;2022-08-19T08:19:53;94603.25;;;28.74;76.63
38400;BME280;24180;42.676;23.320;2022-08-19T08:22:20;94598.75;;;28.85;73.88
38400;BME280;24180;42.676;23.320;2022-08-19T08:25:14;94588.44;;;29.04;73.28
38400;BME280;24180;42.676;23.320;2022-08-19T08:27:42;94592.47;;;29.21;72.78
38400;BME280;24180;42.676;23.320;2022-08-19T08:30:20;94580.84;;;29.33;70.24
38400;BME280;24180;42.676;23.320;2022-08-19T08:32:53;94590.22;;;29.60;67.49
38400;BME280;24180;42.676;23.320;2022-08-19T08:35:22;94588.59;;;29.59;68.84
38400;BME280;24180;42.676;23.320;2022-08-19T08:37:49;94589.66;;;29.73;66.77
38400;BME280;24180;42.676;23.320;2022-08-19T08:40:38;94587.53;;;29.75;62.88
38400;BME280;24180;42.676;23.320;2022-08-19T08:43:28;94590.50;;;29.89;60.53
38400;BME280;24180;42.676;23.320;2022-08-19T08:46:08;94585.69;;;30.01;58.17
38400;BME280;24180;42.676;23.320;2022-08-19T08:51:44;94573.66;;;30.29;59.19
38400;BME280;24180;42.676;23.320;2022-08-19T08:54:15;94571.50;;;30.36;56.13
38400;BME280;24180;42.676;23.320;2022-08-19T08:56:44;94566.13;;;30.41;54.18
38400;BME280;24180;42.676;23.320;2022-08-19T09:01:58;94576.22;;;30.75;52.02
38400;BME280;24180;42.676;23.320;2022-08-19T09:04:28;94570.81;;;30.90;51.85
38400;BME280;24180;42.676;23.320;2022-08-19T09:07:41;94562.53;;;31.01;51.81
38400;BME280;24180;42.676;23.320;2022-08-19T09:15:28;94550.41;;;31.14;45.38
38400;BME280;24180;42.676;23.320;2022-08-19T09:21:15;94553.66;;;31.50;44.84
38400;BME280;24180;42.676;23.320;2022-08-19T09:23:41;94549.06;;;31.61;44.96
38400;BME280;24180;42.676;23.320;2022-08-19T09:26:15;94551.97;;;31.69;43.40
38400;BME280;24180;42.676;23.320;2022-08-19T09:28:46;94521.47;;;31.65;46.04
38400;BME280;24180;42.676;23.320;2022-08-19T09:31:21;94533.97;;;31.75;44.47
38400;BME280;24180;42.676;23.320;2022-08-19T09:33:47;94548.25;;;31.94;43.94
38400;BME280;24180;42.676;23.320;2022-08-19T09:36:19;94540.78;;;31.91;42.37
38400;BME280;24180;42.676;23.320;2022-08-19T09:38:48;94548.50;;;31.97;41.93
38400;BME280;24180;42.676;23.320;2022-08-19T09:41:17;94545.16;;;32.16;41.96
38400;BME280;24180;42.676;23.320;2022-08-19T09:43:45;94533.13;;;32.13;39.87
38400;BME280;24180;42.676;23.320;2022-08-19T09:46:12;94544.03;;;32.22;38.19
38400;BME280;24180;42.676;23.320;2022-08-19T09:48:39;94535.03;;;32.08;38.03
38400;BME280;24180;42.676;23.320;2022-08-19T09:51:13;94548.91;;;32.15;37.33
38400;BME280;24180;42.676;23.320;2022-08-19T09:53:45;94534.19;;;32.41;36.94
38400;BME280;24180;42.676;23.320;2022-08-19T09:56:12;94548.84;;;32.72;35.65
38400;BME280;24180;42.676;23.320;2022-08-19T09:58:38;94542.34;;;32.78;35.76
38400;BME280;24180;42.676;23.320;2022-08-19T10:01:05;94538.25;;;33.05;35.26
38400;BME280;24180;42.676;23.320;2022-08-19T10:03:33;94533.44;;;33.25;33.99
38400;BME280;24180;42.676;23.320;2022-08-19T10:06:00;94528.66;;;33.92;34.18
38400;BME280;24180;42.676;23.320;2022-08-19T10:08:34;94520.22;;;35.27;32.52
38400;BME280;24180;42.676;23.320;2022-08-19T10:11:00;94518.63;;;37.41;29.46
38400;BME280;24180;42.676;23.320;2022-08-19T10:13:29;94516.88;;;38.61;27.66
38400;BME280;24180;42.676;23.320;2022-08-19T10:16:02;94514.22;;;39.19;27.90
38400;BME280;24180;42.676;23.320;2022-08-19T10:18:28;94512.59;;;40.34;25.96
38400;BME280;24180;42.676;23.320;2022-08-19T10:21:12;94512.06;;;39.34;26.53
38400;BME280;24180;42.676;23.320;2022-08-19T10:23:40;94517.50;;;38.66;26.44
38400;BME280;24180;42.676;23.320;2022-08-19T10:26:09;94517.59;;;40.32;25.67
38400;BME280;24180;42.676;23.320;2022-08-19T10:28:36;94509.28;;;40.98;25.01
38400;BME280;24180;42.676;23.320;2022-08-19T10:31:12;94509.44;;;41.53;23.65
38400;BME280;24180;42.676;23.320;2022-08-19T10:33:38;94499.88;;;41.72;24.03
38400;BME280;24180;42.676;23.320;2022-08-19T10:36:13;94500.66;;;43.76;22.49
38400;BME280;24180;42.676;23.320;2022-08-19T10:38:41;94496.47;;;44.20;21.54
38400;BME280;24180;42.676;23.320;2022-08-19T10:41:10;94495.56;;;44.58;21.19
38400;BME280;24180;42.676;23.320;2022-08-19T10:43:36;94496.25;;;44.29;21.52
38400;BME280;24180;42.676;23.320;2022-08-19T10:46:08;94499.09;;;43.21;21.94
38400;BME280;24180;42.676;23.320;2022-08-19T10:48:34;94495.41;;;43.48;21.84
38400;BME280;24180;42.676;23.320;2022-08-19T10:51:00;94500.16;;;45.49;20.43
38400;BME280;24180;42.676;23.320;2022-08-19T10:53:45;94498.56;;;46.88;19.78
38400;BME280;24180;42.676;23.320;2022-08-19T10:56:11;94492.16;;;45.96;19.93
38400;BME280;24180;42.676;23.320;2022-08-19T10:58:55;94494.38;;;44.56;21.29
38400;BME280;24180;42.676;23.320;2022-08-19T11:01:21;94501.78;;;46.17;20.11
38400;BME280;24180;42.676;23.320;2022-08-19T11:03:50;94496.81;;;47.89;18.16
38400;BME280;24180;42.676;23.320;2022-08-19T11:06:16;94495.81;;;48.33;18.08
38400;BME280;24180;42.676;23.320;2022-08-19T11:08:41;94493.06;;;49.32;17.21
38400;BME280;24180;42.676;23.320;2022-08-19T11:11:11;94489.59;;;50.26;17.46
38400;BME280;24180;42.676;23.320;2022-08-19T11:13:39;94494.41;;;50.15;16.84
38400;BME280;24180;42.676;23.320;2022-08-19T11:16:13;94482.69;;;51.14;16.44
38400;BME280;24180;42.676;23.320;2022-08-19T11:18:46;94489.63;;;51.66;15.79
38400;BME280;24180;42.676;23.320;2022-08-19T11:23:40;94482.88;;;48.58;17.17
38400;BME280;24180;42.676;23.320;2022-08-19T11:26:06;94481.47;;;47.09;18.50
38400;BME280;24180;42.676;23.320;2022-08-19T11:28:32;94476.22;;;49.12;17.87
38400;BME280;24180;42.676;23.320;2022-08-19T11:30:59;94468.34;;;48.61;17.52
38400;BME280;24180;42.676;23.320;2022-08-19T11:33:25;94477.13;;;50.00;16.35
38400;BME280;24180;42.676;23.320;2022-08-19T11:35:52;94457.13;;;51.06;16.31
38400;BME280;24180;42.676;23.320;2022-08-19T11:38:18;94468.22;;;52.08;15.35
38400;BME280;24180;42.676;23.320;2022-08-19T11:40:44;94460.94;;;51.57;15.80
38400;BME280;24180;42.676;23.320;2022-08-19T11:43:09;94457.97;;;51.40;16.05
38400;BME280;24180;42.676;23.320;2022-08-19T11:45:35;94464.75;;;52.30;15.54
38400;BME280;24180;42.676;23.320;2022-08-19T11:48:01;94456.66;;;52.93;15.29
38400;BME280;24180;42.676;23.320;2022-08-19T11:50:27;94444.28;;;52.78;15.17
38400;BME280;24180;42.676;23.320;2022-08-19T11:52:56;94453.28;;;52.82;15.16
38400;BME280;24180;42.676;23.320;2022-08-19T11:55:22;94452.16;;;52.53;15.40
38400;BME280;24180;42.676;23.320;2022-08-19T11:57:48;94456.88;;;51.65;15.24
38400;BME280;24180;42.676;23.320;2022-08-19T12:00:14;94451.16;;;51.48;15.84
38400;BME280;24180;42.676;23.320;2022-08-19T12:02:40;94433.81;;;51.82;15.43
38400;BME280;24180;42.676;23.320;2022-08-19T12:05:06;94437.84;;;52.08;15.43
38400;BME280;24180;42.676;23.320;2022-08-19T12:07:33;94442.47;;;52.68;15.09
38400;BME280;24180;42.676;23.320;2022-08-19T12:09:59;94432.84;;;52.99;14.71
38400;BME280;24180;42.676;23.320;2022-08-19T12:12:26;94440.56;;;52.11;15.32
38400;BME280;24180;42.676;23.320;2022-08-19T12:14:52;94430.84;;;53.00;14.93
38400;BME280;24180;42.676;23.320;2022-08-19T12:17:23;94429.81;;;53.56;14.56
38400;BME280;24180;42.676;23.320;2022-08-19T12:19:49;94432.34;;;54.06;13.99
38400;BME280;24180;42.676;23.320;2022-08-19T12:22:14;94422.97;;;54.00;13.95
38400;BME280;24180;42.676;23.320;2022-08-19T12:24:40;94418.31;;;54.30;14.05
38400;BME280;24180;42.676;23.320;2022-08-19T12:27:05;94416.88;;;54.74;14.33
38400;BME280;24180;42.676;23.320;2022-08-19T12:29:31;94408.84;;;55.53;13.73
38400;BME280;24180;42.676;23.320;2022-08-19T12:31:58;94410.22;;;55.32;13.17
38400;BME280;24180;42.676;23.320;2022-08-19T12:34:30;94401.00;;;54.26;13.46
38400;BME280;24180;42.676;23.320;2022-08-19T12:37:01;94397.72;;;54.79;14.02
38400;BME280;24180;42.676;23.320;2022-08-19T12:39:34;94402.94;;;55.92;13.25
38400;BME280;24180;42.676;23.320;2022-08-19T12:41:59;94396.97;;;56.57;13.28
38400;BME280;24180;42.676;23.320;2022-08-19T12:44:25;94404.75;;;57.31;12.36
38400;BME280;24180;42.676;23.320;2022-08-19T12:46:50;94385.66;;;57.64;12.46
38400;BME280;24180;42.676;23.320;2022-08-19T12:49:22;94391.16;;;57.77;12.09
38400;BME280;24180;42.676;23.320;2022-08-19T12:51:48;94401.88;;;57.87;12.31
38400;BME280;24180;42.676;23.320;2022-08-19T12:54:13;94384.84;;;57.54;12.40
38400;BME280;24180;42.676;23.320;2022-08-19T12:56:40;94379.38;;;57.29;11.83
38400;BME280;24180;42.676;23.320;2022-08-19T12:59:29;94390.03;;;56.11;12.31
38400;BME280;24180;42.676;23.320;2022-08-19T13:01:56;94386.63;;;55.24;12.65
38400;BME280;24180;42.676;23.320;2022-08-19T13:04:22;94386.38;;;52.44;14.27
38400;BME280;24180;42.676;23.320;2022-08-19T13:06:53;94387.25;;;54.38;13.64
38400;BME280;24180;42.676;23.320;2022-08-19T13:09:19;94374.00;;;52.75;14.34
38400;BME280;24180;42.676;23.320;2022-08-19T13:11:44;94369.19;;;52.79;14.21
38400;BME280;24180;42.676;23.320;2022-08-19T13:14:10;94380.63;;;53.44;13.66
38400;BME280;24180;42.676;23.320;2022-08-19T13:16:36;94366.06;;;52.77;14.02
38400;BME280;24180;42.676;23.320;2022-08-19T13:19:03;94362.72;;;52.16;14.78
38400;BME280;24180;42.676;23.320;2022-08-19T13:21:30;94372.44;;;53.57;13.94
38400;BME280;24180;42.676;23.320;2022-08-19T13:23:56;94366.56;;;53.91;14.19
38400;BME280;24180;42.676;23.320;2022-08-19T13:26:22;94358.72;;;54.70;13.23
38400;BME280;24180;42.676;23.320;2022-08-19T13:28:48;94355.38;;;53.78;13.71